x

South Brooks (46132) Wave Buoy

2:00 - Sat 25th Jun 2016 All times are PDT. -7 hours from GMT.

  • Sig Wave height 4.3ft
  • Peak Period 18s
  • Wind
    9mph, 11mph gusts
  • Sea Temp 58°f
  • Luft Temp 59°f
  • Sea Pressure 1025.3mb
  • South Brooks
  • South Brooks

More Historic Weather Station data

Upgrade to MSW Pro to gain access to the past 30 days of data for over 8000 Wavebouys and Weather Stations around the globe.

Join Pro

Comparision Forecast

View Surf forecast
   
Sa 06/25 2:00 4.5ft 18s 9 11 mph 1025.3mb 58f 59f
1:00 4.5ft 8s 7 9 mph 1025.6mb 58f 58f
12:00 4.5ft 17s 7 9 mph 1025.8mb 58f 58f
Fr 06/24 11:00 4.5ft 18s 4 7 mph 1025.8mb 58f 59f
10:00 4.5ft 18s 4 7 mph 1025.7mb 58f 58f
9:00 5ft 17s 7 9 mph 1025.3mb 58f 58f
8:00 4.5ft 7s 4 7 mph 1025.3mb 58f 58f
7:00 5ft 18s 9 11 mph 1024.9mb 58f 58f
6:00 5ft 7s 7 9 mph 1024.7mb 58f 58f
5:00 5ft 17s 9 11 mph 1024.5mb 58f 58f
4:00 5ft 7s 11 13 mph 1024.6mb 58f 58f
3:00 5ft 17s 11 13 mph 1024.3mb 57f 59f
2:00 5ft 18s 13 18 mph 1024.1mb 57f 58f
1:00 5ft 7s 9 11 mph 1023.6mb 57f 60f
12:00 5ft 18s 9
mph
1022.9mb 57f 60f
11:00 5ft 17s 9 11 mph 1022.5mb 57f 60f
10:00 5ft 7s 9
mph
1022.2mb 57f 59f
9:00 5.5ft 7s 9 11 mph 1021.7mb 57f 60f
8:00 5.5ft 7s 13 16 mph 1021.2mb 57f 60f
7:00 6ft 7s 13 18 mph 1020.5mb 57f 61f
6:00 5.5ft 7s 13 18 mph 1020mb 57f 61f
5:00 5.5ft 7s 16 18 mph 1019.5mb 57f 61f
4:00 5ft 7s 16 18 mph 1019.2mb 57f 61f
3:00 5ft 8s 13 18 mph 1019mb 57f 61f
2:00 5ft 6s 18 20 mph 1018.9mb 57f 61f
1:00 5ft 6s 13 18 mph 1018.8mb 57f 61f
12:00 5ft 6s 13 18 mph 1018.6mb 57f 61f
Do 06/23 11:00 4.5ft 18s 13 16 mph 1018.4mb 57f 61f
10:00 4.5ft 18s 16 20 mph 1018.2mb 57f 61f
9:00 4.5ft 5s 16 18 mph 1017.9mb 57f 62f
8:00 4.5ft 18s 16 20 mph 1017.7mb 57f 62f
7:00 4.5ft 8s 16 18 mph 1017.4mb 57f 63f
6:00 5ft 8s 18 20 mph 1017.3mb 57f 62f
5:00 5ft 8s 18 22 mph 1016.9mb 57f 62f
4:00 4.5ft 8s 18 22 mph 1016.6mb 57f 62f
3:00 4.5ft 9s 18 20 mph 1016.1mb 57f 61f
2:00 4.5ft 8s 18 22 mph 1015.6mb 57f 56f
1:00 4.5ft 8s 18 22 mph 1015.1mb 57f 56f
12:00 4.5ft 8s 18 22 mph 1014.8mb 57f 56f
11:00 4.5ft 8s 18 22 mph 1014.3mb 56f 56f
10:00 4.5ft 5s 18 22 mph 1013.9mb 56f 56f
9:00 4.5ft 8s 20 25 mph 1013.3mb 56f 56f
8:00 4.5ft 4s 20 25 mph 1013mb 57f 55f
7:00 4.5ft 5s 22 29 mph 1012.6mb 57f 56f
6:00 4.5ft 8s 22 25 mph 1012.6mb 57f 55f
5:00 5ft 7s 20 25 mph 1012.5mb 57f 55f
4:00 4.5ft 7s 20 25 mph 1012.4mb 57f 55f
3:00 4.5ft 7s 18 22 mph 1012.7mb 57f 55f
2:00 4.5ft 9s 18 20 mph 1012.9mb 56f 55f
1:00 4.5ft 8s 16 20 mph 1013.3mb 56f 55f
12:00 3.5ft 8s 18 20 mph 1013.5mb 56f 56f
Mi 06/22 11:00 3.5ft 8s 13 16 mph 1014mb 56f 57f
10:00 3.5ft 9s 16 20 mph 1014.5mb 56f 57f
9:00 3.5ft 9s 13 16 mph 1014.6mb 56f 57f
8:00 3.5ft 9s 11 13 mph 1015.2mb 56f 57f
7:00 4ft 7s 9 11 mph 1015.7mb 56f 57f
6:00 4ft 8s 9 11 mph 1016.1mb 56f 57f
5:00 4.5ft 7s 7 9 mph 1016.5mb 57f 58f
4:00 4.5ft 7s 4 7 mph 1017.1mb 57f 58f
3:00 4.5ft 8s 4 7 mph 1017.2mb 57f 57f
2:00 4.5ft 8s 4 7 mph 1017.4mb 57f 57f
1:00 4.5ft 7s 4
mph
1017.5mb 57f 57f
12:00 4.5ft 8s  -  2 mph 1017.8mb 56f 57f
11:00 4.5ft 8s 4
mph
1017.8mb 56f 55f
10:00 4.5ft 8s 2 4 mph 1017.8mb 56f 56f
9:00 4.5ft 8s  -  2 mph 1017.8mb 56f 56f
8:00 4.5ft 7s  -  2 mph 1017.9mb 55f 56f
7:00 4.5ft 7s 2
mph
1017.9mb 55f 55f
6:00 5ft 8s 2 4 mph 1017.9mb 55f 55f
5:00 5ft 8s 4
mph
1018mb 55f 55f
4:00 5ft 8s 4
mph
1018.3mb 55f 56f
3:00 5ft 8s 4
mph
1018.5mb 55f 56f
2:00 5ft 8s 4
mph
1018.8mb 55f 56f
1:00 5ft 8s 4 7 mph 1019.1mb 55f 56f
12:00 6ft 8s 4
mph
1019.6mb 55f 56f
Di 06/21 11:00 5.5ft 7s 7 9 mph 1020.1mb 55f 56f
10:00 5.5ft 8s 9 11 mph 1020.4mb 55f 56f
9:00 6ft 8s 11 13 mph 1020.4mb 55f 56f
8:00 5.5ft 7s 11 13 mph 1021.1mb 55f 56f
7:00 5.5ft 8s 16 18 mph 1021.5mb 55f 56f
6:00 5ft 6s 16 22 mph 1021.9mb 55f 56f
5:00 5ft 6s 18 20 mph 1022.5mb 55f 56f
4:00 4.5ft 6s 16 18 mph 1022.9mb 55f 56f
3:00 4.5ft 5s 18 22 mph 1023.3mb 55f 56f
2:00 4ft 6s 18 20 mph 1023.5mb 55f 56f
1:00 3.5ft 5s 16 20 mph 1023.9mb 55f 57f
12:00 3.5ft 7s 13 16 mph 1024.3mb 55f 56f
11:00 3ft 8s 13
mph
1024.3mb 55f 56f